Central Sierra Snow Lab Weather observations

Data are for 10 minute period ending at time listed.
 Day   Time    Incoming  Reflected   Ave.   Ave.    Ave.    Vector  Max.    Ave.    Total    Snow   
  of    of      Solar     Solar      Air    Rel.    Wind    Wind    Wind   Baro.   Precip.   Depth  
Year   Day     Radiation Radiation   Temp.  Humid.  Speed   Dir.    Gust   Press.                   
2015   (PST)    Kw/m2     Kw/m2       F       %      mph     deg.    mph     mb.     in.      in.   
----------------------------------------------------------------------------------------------------
 186   11:50    1.011     999.000     71.0     36     3.5     258     8.4   795.40   11.62   -3.90  
 186   12:00    0.592     999.000     70.8     34     3.1     313     6.0   795.40   11.62   -3.90  
 186   12:10    0.599     999.000     71.4     34     2.7     238     6.8   795.30   11.62   -3.90  
 186   12:20    0.876     999.000     71.7     36     1.6     213     4.4   795.30   11.60   -4.00  
 186   12:30    1.011     999.000     73.8     34     3.2     233     8.7   795.20   11.61   -4.20  
 186   12:40    0.866     999.000     73.9     33     2.6     226     7.4   795.20   11.62   -4.20  
 186   12:50    0.340     999.000     72.7     32     1.9     253     4.7   795.20   11.62   -4.30  
 186   13:00    0.457     999.000     71.7     35     2.3     222    11.2   795.10   11.62   -4.00  
 186   13:10    0.743     999.000     71.7     36     3.3     237    11.8   795.10   11.62   -3.70  
 186   13:20    0.399     999.000     72.6     35     2.8     196     5.8   795.10   11.61   -3.70  
 186   13:30    0.675     999.000     71.3     38     2.0     260     6.1   795.00   11.62   -3.70  
 186   13:40    0.927     999.000     73.8     35     2.8     268     8.5   794.90   11.62   -3.80  
 186   13:50    0.808     999.000     73.3     35     3.5     265     7.9   794.90   11.62   -3.80  
 186   14:00    0.765     999.000     72.5     36     3.5     241     8.7   794.90   11.61   -3.70  
 186   14:10    0.498     999.000     72.6     36     2.4     261     8.5   794.80   11.61   -3.70  
 186   14:20    0.918     999.000     72.7     35     3.3     259     9.7   794.80   11.61   -3.90  
 186   14:30    0.708     999.000     73.8     35     3.3     236     9.8   794.70   11.62   -3.80  
 186   14:40    0.820     999.000     73.3     36     4.4     264    10.8   794.70   11.62   -3.60  
 186   14:50    0.809     999.000     73.9     35     2.9     217     7.4   794.60   11.62   -3.80  
 186   15:00    0.782     999.000     74.4     34     3.6     230    10.2   794.60   11.62   -3.80  
 186   15:10    0.710     999.000     73.6     34     3.7     237     8.9   794.50   11.61   -3.80  
 186   15:20    0.715     999.000     73.6     36     4.1     254     9.3   794.50   11.60   -3.70  
 186   15:30    0.622     999.000     73.6     37     3.0     290     8.4   794.40   11.62   -3.70  
 186   15:40    0.713     999.000     74.2     35     3.5     335    10.0   794.40   11.62   -3.70  
 186   15:50    0.619     999.000     74.2     34     3.3     267     9.1   794.40   11.62   -3.90  
 186   16:00    0.648     999.000     73.9     34     4.5     285     9.8   794.40   11.62   -3.80  
 186   16:10    0.468     999.000     74.0     35     3.0     240     8.9   794.40   11.61   -3.70  
 186   16:20    0.556     999.000     74.2     34     3.0     252     8.2   794.40   11.62   -3.70  
 186   16:30    0.488     999.000     73.8     34     2.8     234    10.3   794.40   11.61   -3.70  
 186   16:40    0.327     999.000     73.3     34     3.6     298     6.7   794.50   11.62   -3.80  
 186   16:50    0.352     999.000     72.0     37     2.6     280    10.2   794.50   11.61   -3.60  
 186   17:00    0.433     999.000     72.9     36     2.6     220     6.1   794.50   11.62   -3.70  
 186   17:10    0.393     999.000     73.0     34     3.6     253     9.6   794.50   11.62   -3.80  
 186   17:20    0.359     999.000     72.4     36     3.3     313     9.0   794.50   11.61   -3.80  
 186   17:30    0.327     999.000     72.6     37     2.5     230     6.9   794.50   11.62   -3.90  
 186   17:40    0.296     999.000     72.2     37     3.5     300     7.2   794.60   11.62   -4.00  
 186   17:50    0.267     999.000     72.1     38     2.7     249     6.7   794.60   11.61   -4.00  
 186   18:00    0.232     999.000     71.7     39     2.5     227     7.6   794.70   11.62   -4.00  
 186   18:10    0.163     999.000     71.5     40     1.7     274     4.7   794.70   11.62   -4.00  
 186   18:20    0.147     999.000     71.1     41     2.5     248     7.0   794.70   11.62   -3.90  
 186   18:30    0.139     999.000     70.2     42     1.8     261     7.5   794.80   11.62   -3.60  
 186   18:40    0.041     999.000     69.2     45     2.1     278     7.5   794.90   11.62    0.80  
 186   18:50    0.014     999.000     67.5     47     2.4     263     6.8   794.80   11.61   13.40  
 186   19:00    0.012     999.000     66.3     50     1.8     236     6.7   794.80   11.62   37.20  
 186   19:10    0.010     999.000     65.6     52     0.8     245     4.9   794.90   11.62   164.30  
 186   19:20    0.006     999.000     64.8     55     1.0     313     3.6   795.00   11.62   120.90  
 186   19:30    0.003     999.000     63.6     58     1.0      32     1.9   795.10   11.62   -3.30  
 186   19:40    0.002     999.000     62.3     61     1.5      30     2.8   795.20   11.62   -3.20  
 186   19:50    0.000     999.000     61.2     65     1.9      32     3.5   795.30   11.62   -3.30  
 186   20:00    0.000     999.000     60.3     68     2.0      21     3.0   795.40   11.62   -3.10  
 186   20:10    0.000     999.000     59.4     70     1.9      26     2.6   795.40   11.61   -3.10  
 186   20:20    0.000     999.000     58.6     71     1.5      22     2.3   795.50   11.62   -3.10  
 186   20:30    0.000     999.000     57.9     73     1.9      24     2.8   795.60   11.62   -3.10  
 186   20:40    0.000     999.000     57.3     73     1.8      25     2.6   795.60   11.62   -3.10  
 186   20:50    0.000     999.000     56.8     74     2.3      30     3.4   795.60   11.62   -3.10  
 186   21:00    0.000     999.000     56.4     74     2.7      26     3.4   795.70   11.62   -3.20  
 186   21:10    0.000     999.000     56.1     75     2.2      30     3.1   795.80   11.62   -3.10  
 186   21:20    0.000     999.000     55.8     75     1.5      32     3.1   795.90   11.62   -3.00  
 186   21:30    0.000     999.000     55.5     76     1.6      35     2.8   795.90   11.62   -3.00  
 186   21:40    0.000     999.000     55.3     76     1.8      27     2.9   796.00   11.62   -3.00  
 186   21:50    0.000     999.000     55.2     75     1.7      35     3.3   796.00   11.62   -3.00  
 186   22:00    0.000     999.000     55.0     76     2.1      33     3.9   796.00   11.62   -3.00  
 186   22:10    0.000     999.000     54.8     76     1.9      34     3.9   796.00   11.63   -3.00  
 186   22:20    0.000     999.000     54.5     76     1.9      33     3.5   796.00   11.62   -3.10  
 186   22:30    0.000     999.000     54.2     76     2.6      32     4.0   796.00   11.62   -3.10  
 186   22:40    0.000     999.000     53.9     76     1.1      64     2.1   796.10   11.62   -3.00  
 186   22:50    0.000     999.000     53.6     76     1.9      36     3.9   796.10   11.62   -3.00  
 186   23:00    0.000     999.000     53.5     75     2.6      29     4.8   796.10   11.63   -2.90  
 186   23:10    0.000     999.000     53.4     73     3.1      26     4.1   796.10   11.62   -3.00  
 186   23:20    0.000     999.000     53.0     74     1.9      34     3.5   796.20   11.62   -3.00  
 186   23:30    0.000     999.000     52.8     74     1.8      37     3.0   796.10   11.63   -3.00  
 186   23:40    0.000     999.000     52.4     75     2.8      30     3.8   796.10   11.62   -3.00  
 186   23:50    0.000     999.000     52.2     76     2.4      36     3.7   796.10   11.62   -3.00  
 187    0:00    0.000     999.000     52.0     76     1.6      39     2.8   796.10   11.62   -3.10  
 187    0:10    0.000     999.000     51.8     78     1.4      61     2.1   796.10   11.62   -3.00  
 187    0:20    0.000     999.000     51.7     78     2.0      30     2.9   796.10   11.62   -3.00  
 187    0:30    0.000     999.000     51.6     79     2.5      28     4.2   796.10   11.62   -3.00  
 187    0:40    0.000     999.000     51.5     80     2.5      27     3.6   796.10   11.62   -3.00  
 187    0:50    0.000     999.000     51.3     80     2.6      24     3.3   796.10   11.62   -3.10  
 187    1:00    0.000     999.000     51.2     81     2.8      28     3.7   796.10   11.62   -3.10  
 187    1:10    0.000     999.000     51.2     81     1.4      46     3.2   796.10   11.62   -3.10  
 187    1:20    0.000     999.000     51.1     82     1.6      43     2.7   796.10   11.63   -3.00  
 187    1:30    0.000     999.000     51.0     82     2.1      26     3.2   796.10   11.62   -3.10  
 187    1:40    0.000     999.000     50.8     82     2.9      24     3.7   796.10   11.62   -3.20  
 187    1:50    0.000     999.000     50.6     82     3.1      29     4.4   796.10   11.62   -3.10  
 187    2:00    0.000     999.000     50.6     83     0.7      31     3.4   796.10   11.63   -3.00  
 187    2:10    0.000     999.000     50.4     83     2.3      29     3.4   796.00   11.62   -3.00  
 187    2:20    0.000     999.000     50.3     83     2.6      30     3.6   796.00   11.62   -3.10  
 187    2:30    0.000     999.000     50.3     83     1.8      46     3.7   795.90   11.62   -3.10  
 187    2:40    0.000     999.000     50.2     84     1.8      30     3.4   796.00   11.62   -3.10  
 187    2:50    0.000     999.000     50.1     83     3.1      28     4.3   795.90   11.62   -3.10  
 187    3:00    0.000     999.000     50.0     83     2.5      27     4.3   795.90   11.63   -3.10  
 187    3:10    0.000     999.000     49.8     84     2.4      30     4.0   796.00   11.62   -3.20  
 187    3:20    0.000     999.000     49.8     84     2.3      31     3.5   796.00   11.62   -3.10  
 187    3:30    0.000     999.000     50.0     83     3.2      32     6.3   796.00   11.62   -3.10  
 187    3:40    0.000     999.000     49.8     83     2.3      39     3.6   796.00   11.62   -3.10  
 187    3:50    0.000     999.000     49.4     84     1.4      46     2.4   796.00   11.63   -3.10  
 187    4:00    0.000     999.000     49.3     84     1.5      47     2.6   796.00   11.62   -3.00  
 187    4:10    0.000     999.000     49.3     84     2.3      28     3.3   796.10   11.62   -3.10  
 187    4:20    0.000     999.000     49.1     85     2.4      34     3.3   796.10   11.63   -3.20  
 187    4:30    0.000     999.000     48.9     85     1.7      33     3.3   796.20   11.62   -3.10  
 187    4:40    0.001     999.000     49.0     85     2.9      24     3.7   796.30   11.62   -3.10  
 187    4:50    0.003     999.000     49.0     85     1.9      34     3.6   796.40   11.63   -3.20  
 187    5:00    0.004     999.000     48.8     86     1.1      40     1.9   796.40   11.63   -3.10  
 187    5:10    0.007     999.000     48.8     86     1.7      34     2.5   796.50   11.63   -3.10  
 187    5:20    0.009     999.000     49.1     86     2.6      32     3.9   796.60   11.63   -3.20  
 187    5:30    0.011     999.000     49.2     86     1.7      35     2.8   796.60   11.62   -3.20  
 187    5:40    0.012     999.000     49.5     87     1.4      43     1.8   796.60   11.62   -3.10  
 187    5:50    0.014     999.000     49.9     88     1.4      39     1.8   796.70   11.63   -3.30  
 187    6:00    0.017     999.000     50.4     88     1.2      43     1.4   796.80   11.63   -3.20  
 187    6:10    0.019     999.000     51.1     88     1.1      43     1.5   796.80   11.63   -3.30  
 187    6:20    0.020     999.000     51.8     87     1.0      43     1.5   796.80   11.62   -3.30  
 187    6:30    0.026     999.000     52.7     87     1.0      47     1.4   796.80   11.63   -3.30  
 187    6:40    0.057     999.000     53.7     86     1.2      35     2.2   796.90   11.63   -3.50  
 187    6:50    0.086     999.000     56.0     81     1.1      56     2.2   796.90   11.61   -3.60  
 187    7:00    0.204     999.000     58.4     74     1.0      55     2.5   796.90   11.63   -3.80  
 187    7:10    0.360     999.000     61.2     66     0.2      22     1.3   796.90   11.63   -3.70  
 187    7:20    0.394     999.000     63.6     60     0.2      12     1.3   796.90   11.63   -4.00  
 187    7:30    0.424     999.000     65.4     56     0.4     129     1.7   796.90   11.62   -4.20  
 187    7:40    0.454     999.000     65.3     55     0.8     186     4.0   796.90   11.63   -4.20  
 187    7:50    0.483     999.000     65.2     54     1.6     159     5.1   796.90   11.63   -4.20  
 187    8:00    0.512     999.000     65.6     54     1.3     208     4.1   796.90   11.63   -4.00  
 187    8:10    0.543     999.000     66.3     52     2.0     206     4.7   796.90   11.62   -4.10  
 187    8:20    0.574     999.000     67.1     52     1.8     222     4.0   796.90   11.62   -4.10  
 187    8:30    0.601     999.000     67.3     52     2.2     228     4.7   796.90   11.62   -4.10  
 187    8:40    0.625     999.000     67.5     49     2.3     240     5.2   797.00   11.61   -4.10  
 187    8:50    0.653     999.000     67.6     50     2.1     225     5.9   797.00   11.62   -4.20  
 187    9:00    0.678     999.000     67.8     49     2.4     195     5.9   797.00   11.61   -4.20  
 187    9:10    0.702     999.000     67.8     48     3.1     192     6.1   797.00   11.62   -4.10  
 187    9:20    0.726     999.000     68.3     45     2.6     174     6.1   796.90   11.61   -4.20  
 187    9:30    0.746     999.000     68.9     46     2.5     203     7.4   797.00   11.61   -4.10  
 187    9:40    0.769     999.000     69.3     41     2.5     230     5.6   797.00   11.62   -4.40  
 187    9:50    0.800     999.000     69.4     40     2.7     190     6.1   797.00   11.62   -4.20  
 187   10:00    0.809     999.000     70.3     41     2.7     246     7.6   797.00   11.62   -4.30  
 187   10:10    0.824     999.000     70.4     40     3.0     175     6.8   797.00   11.62   -4.20  
 187   10:20    0.842     999.000     70.4     42     3.0     245     7.5   797.10   11.60   -4.10  
 187   10:30    0.871     999.000     70.4     41     3.1     207     6.4   797.10   11.62   -4.10  
 187   10:40    0.886     999.000     70.5     43     3.6     259     9.3   797.10   11.62   -4.20  
 187   10:50    0.904     999.000     70.6     42     2.7     228     7.2   797.10   11.62   -4.20  
 187   11:00    0.918     999.000     71.3     40     2.1     218     6.5   797.10   11.62   -4.20  
 187   11:10    0.929     999.000     71.7     39     3.0     229     8.3   797.10   11.62   -4.10  
 187   11:20    0.941     999.000     72.2     38     2.4     202     4.9   797.10   11.61   -4.20  
 187   11:30    0.941     999.000     72.8     37     2.7     242     5.7   797.10   11.61   -4.50  
 187   11:40    0.942     999.000     72.1     37     2.9     214     6.3   797.00   11.62   -4.10  

Return to Central Sierra Snow Lab graphs page.


Western Regional Climate Center,wrcc@dri.edu